Terminal Aerodrome Forecast
Issued by NWS

Home | Current Version | Previous Version | Text Only | Print | Product List | Glossary On
Versions: 1 2 3 4 5 6 7 8 9 10 11 12 13 14 15 16 17
163
FTUS45 KRIW 172332
TAFBPI
TAF
KBPI 172332Z 1800/1824 03015G25KT P6SM VCTS SCT050CB BKN070
     FM180500 04008KT P6SM SCT060 BKN100
     FM181300 VRB06KT P6SM VCSH BKN060
     FM181900 16010KT P6SM VCTS SCT030CB OVC060=

USA.gov is the U.S. government's official web portal to all federal, state and local government web resources and services.